sensor_id;sensor_type;location;lat;lon;timestamp;P1;durP1;ratioP1;P2;durP2;ratioP2
3267;SDS011;1646;52.450;13.326;2023-03-08T00:03:51;9.93;;;2.10;;
3267;SDS011;1646;52.450;13.326;2023-03-08T00:08:52;3.13;;;2.00;;
3267;SDS011;1646;52.450;13.326;2023-03-08T00:13:51;12.40;;;2.03;;
3267;SDS011;1646;52.450;13.326;2023-03-08T00:18:52;3.10;;;1.70;;
3267;SDS011;1646;52.450;13.326;2023-03-08T00:23:50;5.23;;;2.00;;
3267;SDS011;1646;52.450;13.326;2023-03-08T00:28:50;3.10;;;1.73;;
3267;SDS011;1646;52.450;13.326;2023-03-08T00:33:52;4.87;;;2.40;;
3267;SDS011;1646;52.450;13.326;2023-03-08T00:38:50;5.80;;;2.00;;
3267;SDS011;1646;52.450;13.326;2023-03-08T00:43:49;5.53;;;2.83;;
3267;SDS011;1646;52.450;13.326;2023-03-08T00:48:47;8.83;;;2.23;;
3267;SDS011;1646;52.450;13.326;2023-03-08T00:53:47;6.50;;;2.63;;
3267;SDS011;1646;52.450;13.326;2023-03-08T00:58:46;5.63;;;2.70;;
3267;SDS011;1646;52.450;13.326;2023-03-08T01:03:44;7.27;;;3.40;;
3267;SDS011;1646;52.450;13.326;2023-03-08T01:08:44;7.13;;;4.03;;
3267;SDS011;1646;52.450;13.326;2023-03-08T01:13:43;12.50;;;3.80;;
3267;SDS011;1646;52.450;13.326;2023-03-08T01:18:42;9.50;;;3.40;;
3267;SDS011;1646;52.450;13.326;2023-03-08T01:23:41;7.13;;;3.83;;
3267;SDS011;1646;52.450;13.326;2023-03-08T01:28:39;9.03;;;4.10;;
3267;SDS011;1646;52.450;13.326;2023-03-08T01:33:39;7.60;;;3.93;;
3267;SDS011;1646;52.450;13.326;2023-03-08T01:38:37;5.57;;;3.80;;
3267;SDS011;1646;52.450;13.326;2023-03-08T01:43:36;10.60;;;5.10;;
3267;SDS011;1646;52.450;13.326;2023-03-08T01:48:39;10.83;;;5.23;;
3267;SDS011;1646;52.450;13.326;2023-03-08T01:53:45;11.93;;;5.43;;
3267;SDS011;1646;52.450;13.326;2023-03-08T01:58:44;8.73;;;5.20;;
3267;SDS011;1646;52.450;13.326;2023-03-08T02:03:46;15.93;;;5.73;;
3267;SDS011;1646;52.450;13.326;2023-03-08T02:08:48;13.80;;;6.20;;
3267;SDS011;1646;52.450;13.326;2023-03-08T02:13:46;17.60;;;6.40;;
3267;SDS011;1646;52.450;13.326;2023-03-08T02:18:52;22.00;;;5.93;;
3267;SDS011;1646;52.450;13.326;2023-03-08T02:23:53;10.37;;;5.40;;
3267;SDS011;1646;52.450;13.326;2023-03-08T02:28:52;16.23;;;7.00;;
3267;SDS011;1646;52.450;13.326;2023-03-08T02:33:51;13.63;;;7.30;;
3267;SDS011;1646;52.450;13.326;2023-03-08T02:38:49;15.40;;;7.00;;
3267;SDS011;1646;52.450;13.326;2023-03-08T02:43:48;13.40;;;6.97;;
3267;SDS011;1646;52.450;13.326;2023-03-08T02:48:47;12.87;;;7.13;;
3267;SDS011;1646;52.450;13.326;2023-03-08T02:53:49;12.70;;;7.73;;
3267;SDS011;1646;52.450;13.326;2023-03-08T02:58:49;14.90;;;7.20;;
3267;SDS011;1646;52.450;13.326;2023-03-08T03:03:52;14.30;;;7.20;;
3267;SDS011;1646;52.450;13.326;2023-03-08T03:08:51;14.73;;;7.30;;
3267;SDS011;1646;52.450;13.326;2023-03-08T03:13:55;11.93;;;7.50;;
3267;SDS011;1646;52.450;13.326;2023-03-08T03:18:58;16.70;;;8.33;;
3267;SDS011;1646;52.450;13.326;2023-03-08T03:23:57;15.90;;;7.60;;
3267;SDS011;1646;52.450;13.326;2023-03-08T03:29:04;14.60;;;8.30;;
3267;SDS011;1646;52.450;13.326;2023-03-08T03:34:05;14.10;;;7.13;;
3267;SDS011;1646;52.450;13.326;2023-03-08T03:39:05;15.50;;;7.80;;
3267;SDS011;1646;52.450;13.326;2023-03-08T03:44:07;17.13;;;7.73;;
3267;SDS011;1646;52.450;13.326;2023-03-08T03:49:07;18.33;;;8.37;;
3267;SDS011;1646;52.450;13.326;2023-03-08T03:54:08;13.00;;;7.20;;
3267;SDS011;1646;52.450;13.326;2023-03-08T03:59:10;14.40;;;7.13;;
3267;SDS011;1646;52.450;13.326;2023-03-08T04:04:09;13.87;;;6.93;;
3267;SDS011;1646;52.450;13.326;2023-03-08T04:09:12;13.60;;;7.97;;
3267;SDS011;1646;52.450;13.326;2023-03-08T04:14:16;12.80;;;7.17;;
3267;SDS011;1646;52.450;13.326;2023-03-08T04:19:15;14.93;;;8.00;;
3267;SDS011;1646;52.450;13.326;2023-03-08T04:24:19;13.70;;;6.73;;
3267;SDS011;1646;52.450;13.326;2023-03-08T04:29:22;14.63;;;6.57;;
3267;SDS011;1646;52.450;13.326;2023-03-08T04:34:20;19.10;;;7.60;;
3267;SDS011;1646;52.450;13.326;2023-03-08T04:39:19;25.77;;;8.00;;
3267;SDS011;1646;52.450;13.326;2023-03-08T04:44:18;10.53;;;6.80;;
3267;SDS011;1646;52.450;13.326;2023-03-08T04:49:21;13.10;;;6.90;;
3267;SDS011;1646;52.450;13.326;2023-03-08T04:54:25;15.80;;;7.00;;
3267;SDS011;1646;52.450;13.326;2023-03-08T04:59:30;15.33;;;8.07;;
3267;SDS011;1646;52.450;13.326;2023-03-08T05:04:33;10.50;;;7.10;;
3267;SDS011;1646;52.450;13.326;2023-03-08T05:09:31;18.70;;;8.00;;
3267;SDS011;1646;52.450;13.326;2023-03-08T05:14:30;19.13;;;7.57;;
3267;SDS011;1646;52.450;13.326;2023-03-08T05:19:28;12.50;;;6.77;;
3267;SDS011;1646;52.450;13.326;2023-03-08T05:24:28;11.00;;;7.10;;
3267;SDS011;1646;52.450;13.326;2023-03-08T05:29:32;11.40;;;7.20;;
3267;SDS011;1646;52.450;13.326;2023-03-08T05:34:34;12.20;;;7.43;;
3267;SDS011;1646;52.450;13.326;2023-03-08T05:39:36;14.80;;;8.27;;
3267;SDS011;1646;52.450;13.326;2023-03-08T05:44:44;17.23;;;8.60;;
3267;SDS011;1646;52.450;13.326;2023-03-08T05:49:47;19.60;;;7.47;;
3267;SDS011;1646;52.450;13.326;2023-03-08T05:54:48;14.43;;;7.20;;
3267;SDS011;1646;52.450;13.326;2023-03-08T05:59:48;14.23;;;8.57;;
3267;SDS011;1646;52.450;13.326;2023-03-08T06:04:50;16.13;;;7.87;;
3267;SDS011;1646;52.450;13.326;2023-03-08T06:09:52;14.73;;;7.53;;
3267;SDS011;1646;52.450;13.326;2023-03-08T06:14:52;13.50;;;8.17;;
3267;SDS011;1646;52.450;13.326;2023-03-08T06:19:55;17.70;;;8.30;;
3267;SDS011;1646;52.450;13.326;2023-03-08T06:24:54;14.93;;;9.00;;
3267;SDS011;1646;52.450;13.326;2023-03-08T06:29:59;15.20;;;8.37;;
3267;SDS011;1646;52.450;13.326;2023-03-08T06:35:00;12.53;;;7.17;;
3267;SDS011;1646;52.450;13.326;2023-03-08T06:40:01;14.10;;;8.20;;
3267;SDS011;1646;52.450;13.326;2023-03-08T06:45:01;17.63;;;8.57;;
3267;SDS011;1646;52.450;13.326;2023-03-08T06:50:00;13.07;;;8.07;;
3267;SDS011;1646;52.450;13.326;2023-03-08T06:54:58;14.10;;;6.77;;
3267;SDS011;1646;52.450;13.326;2023-03-08T06:59:58;18.10;;;8.57;;
3267;SDS011;1646;52.450;13.326;2023-03-08T07:04:57;15.77;;;7.90;;
3267;SDS011;1646;52.450;13.326;2023-03-08T07:09:55;11.97;;;6.73;;
3267;SDS011;1646;52.450;13.326;2023-03-08T07:14:54;12.83;;;7.40;;
3267;SDS011;1646;52.450;13.326;2023-03-08T07:19:53;12.67;;;7.30;;
3267;SDS011;1646;52.450;13.326;2023-03-08T07:24:51;15.57;;;8.13;;
3267;SDS011;1646;52.450;13.326;2023-03-08T07:29:49;15.90;;;8.57;;
3267;SDS011;1646;52.450;13.326;2023-03-08T07:34:50;17.83;;;9.30;;
3267;SDS011;1646;52.450;13.326;2023-03-08T07:39:48;21.50;;;9.17;;
3267;SDS011;1646;52.450;13.326;2023-03-08T07:44:46;15.37;;;7.73;;
3267;SDS011;1646;52.450;13.326;2023-03-08T07:49:44;14.67;;;8.40;;
3267;SDS011;1646;52.450;13.326;2023-03-08T07:54:44;14.57;;;8.07;;
3267;SDS011;1646;52.450;13.326;2023-03-08T07:59:42;13.83;;;7.93;;
3267;SDS011;1646;52.450;13.326;2023-03-08T08:04:41;16.80;;;9.00;;
3267;SDS011;1646;52.450;13.326;2023-03-08T08:09:39;18.10;;;9.03;;
3267;SDS011;1646;52.450;13.326;2023-03-08T08:14:39;12.10;;;7.90;;
3267;SDS011;1646;52.450;13.326;2023-03-08T08:19:37;13.43;;;7.47;;
3267;SDS011;1646;52.450;13.326;2023-03-08T08:24:36;11.87;;;7.23;;
3267;SDS011;1646;52.450;13.326;2023-03-08T08:29:35;10.67;;;6.40;;
3267;SDS011;1646;52.450;13.326;2023-03-08T08:34:34;10.90;;;7.07;;
3267;SDS011;1646;52.450;13.326;2023-03-08T08:39:33;11.40;;;7.57;;
3267;SDS011;1646;52.450;13.326;2023-03-08T08:44:31;14.00;;;7.07;;
3267;SDS011;1646;52.450;13.326;2023-03-08T08:49:29;10.63;;;6.30;;
3267;SDS011;1646;52.450;13.326;2023-03-08T08:54:29;13.93;;;6.80;;
3267;SDS011;1646;52.450;13.326;2023-03-08T08:59:29;10.27;;;6.47;;
3267;SDS011;1646;52.450;13.326;2023-03-08T09:04:27;12.00;;;6.70;;
3267;SDS011;1646;52.450;13.326;2023-03-08T09:09:26;11.10;;;6.87;;
3267;SDS011;1646;52.450;13.326;2023-03-08T09:14:25;9.60;;;5.70;;
3267;SDS011;1646;52.450;13.326;2023-03-08T09:19:24;10.10;;;5.60;;
3267;SDS011;1646;52.450;13.326;2023-03-08T09:24:22;9.30;;;5.77;;
3267;SDS011;1646;52.450;13.326;2023-03-08T09:29:20;11.23;;;6.53;;
3267;SDS011;1646;52.450;13.326;2023-03-08T09:34:20;10.10;;;6.30;;
3267;SDS011;1646;52.450;13.326;2023-03-08T09:39:18;8.03;;;5.03;;
3267;SDS011;1646;52.450;13.326;2023-03-08T09:44:23;13.40;;;5.53;;
3267;SDS011;1646;52.450;13.326;2023-03-08T09:49:43;7.30;;;5.00;;
3267;SDS011;1646;52.450;13.326;2023-03-08T09:54:46;9.93;;;4.90;;
3267;SDS011;1646;52.450;13.326;2023-03-08T09:59:48;7.40;;;4.83;;
3267;SDS011;1646;52.450;13.326;2023-03-08T10:04:53;6.20;;;4.70;;
3267;SDS011;1646;52.450;13.326;2023-03-08T10:10:14;6.53;;;5.40;;
3267;SDS011;1646;52.450;13.326;2023-03-08T10:15:21;7.23;;;4.87;;
3267;SDS011;1646;52.450;13.326;2023-03-08T10:20:23;5.83;;;4.20;;
3267;SDS011;1646;52.450;13.326;2023-03-08T10:25:26;7.83;;;4.87;;
3267;SDS011;1646;52.450;13.326;2023-03-08T10:30:27;7.30;;;5.17;;
3267;SDS011;1646;52.450;13.326;2023-03-08T10:35:32;7.97;;;4.70;;
3267;SDS011;1646;52.450;13.326;2023-03-08T10:40:33;6.97;;;4.07;;
3267;SDS011;1646;52.450;13.326;2023-03-08T10:45:31;4.23;;;3.83;;
3267;SDS011;1646;52.450;13.326;2023-03-08T10:50:30;7.80;;;4.33;;
3267;SDS011;1646;52.450;13.326;2023-03-08T10:55:36;5.63;;;3.80;;
3267;SDS011;1646;52.450;13.326;2023-03-08T11:00:39;5.73;;;3.93;;
3267;SDS011;1646;52.450;13.326;2023-03-08T11:05:51;4.93;;;3.90;;
3267;SDS011;1646;52.450;13.326;2023-03-08T11:11:00;4.50;;;3.03;;
3267;SDS011;1646;52.450;13.326;2023-03-08T11:16:06;3.77;;;2.53;;
3267;SDS011;1646;52.450;13.326;2023-03-08T11:21:18;4.07;;;2.83;;
3267;SDS011;1646;52.450;13.326;2023-03-08T11:26:23;3.90;;;2.90;;
3267;SDS011;1646;52.450;13.326;2023-03-08T11:31:27;5.27;;;3.20;;
3267;SDS011;1646;52.450;13.326;2023-03-08T11:36:32;4.80;;;3.23;;
3267;SDS011;1646;52.450;13.326;2023-03-08T11:41:38;5.90;;;3.43;;
3267;SDS011;1646;52.450;13.326;2023-03-08T11:46:48;6.77;;;3.63;;
3267;SDS011;1646;52.450;13.326;2023-03-08T11:51:59;6.17;;;3.53;;
3267;SDS011;1646;52.450;13.326;2023-03-08T11:57:03;4.30;;;3.00;;
3267;SDS011;1646;52.450;13.326;2023-03-08T12:02:10;4.70;;;3.10;;
3267;SDS011;1646;52.450;13.326;2023-03-08T12:07:16;6.77;;;3.50;;
3267;SDS011;1646;52.450;13.326;2023-03-08T12:12:20;8.63;;;3.33;;
3267;SDS011;1646;52.450;13.326;2023-03-08T12:17:23;5.77;;;3.93;;
3267;SDS011;1646;52.450;13.326;2023-03-08T12:22:29;6.97;;;3.80;;
3267;SDS011;1646;52.450;13.326;2023-03-08T12:27:38;5.40;;;3.80;;
3267;SDS011;1646;52.450;13.326;2023-03-08T12:32:41;7.37;;;3.67;;
3267;SDS011;1646;52.450;13.326;2023-03-08T12:37:42;4.70;;;3.23;;
3267;SDS011;1646;52.450;13.326;2023-03-08T12:42:40;4.30;;;3.23;;
3267;SDS011;1646;52.450;13.326;2023-03-08T12:47:38;7.17;;;4.33;;
3267;SDS011;1646;52.450;13.326;2023-03-08T12:52:37;8.97;;;4.60;;
3267;SDS011;1646;52.450;13.326;2023-03-08T12:57:38;5.30;;;3.93;;
3267;SDS011;1646;52.450;13.326;2023-03-08T13:02:43;8.17;;;4.50;;
3267;SDS011;1646;52.450;13.326;2023-03-08T13:07:46;6.93;;;4.43;;
3267;SDS011;1646;52.450;13.326;2023-03-08T13:13:00;5.83;;;3.83;;
3267;SDS011;1646;52.450;13.326;2023-03-08T13:18:31;6.67;;;4.17;;
3267;SDS011;1646;52.450;13.326;2023-03-08T13:23:33;6.90;;;4.57;;
3267;SDS011;1646;52.450;13.326;2023-03-08T13:28:35;7.77;;;4.37;;
3267;SDS011;1646;52.450;13.326;2023-03-08T13:33:43;6.20;;;4.40;;
3267;SDS011;1646;52.450;13.326;2023-03-08T13:38:43;7.93;;;4.43;;
3267;SDS011;1646;52.450;13.326;2023-03-08T13:43:52;6.30;;;4.23;;
3267;SDS011;1646;52.450;13.326;2023-03-08T13:48:57;11.20;;;5.13;;
3267;SDS011;1646;52.450;13.326;2023-03-08T13:53:57;8.87;;;5.27;;
3267;SDS011;1646;52.450;13.326;2023-03-08T13:58:57;9.47;;;5.17;;
3267;SDS011;1646;52.450;13.326;2023-03-08T14:03:56;8.10;;;5.40;;
3267;SDS011;1646;52.450;13.326;2023-03-08T14:08:56;9.47;;;5.80;;
3267;SDS011;1646;52.450;13.326;2023-03-08T14:13:59;13.13;;;5.80;;
3267;SDS011;1646;52.450;13.326;2023-03-08T14:19:07;12.93;;;6.63;;
3267;SDS011;1646;52.450;13.326;2023-03-08T14:24:14;10.67;;;5.70;;
3267;SDS011;1646;52.450;13.326;2023-03-08T14:29:19;9.00;;;5.73;;
3267;SDS011;1646;52.450;13.326;2023-03-08T14:34:20;14.53;;;6.90;;
3267;SDS011;1646;52.450;13.326;2023-03-08T14:39:19;10.77;;;5.97;;
3267;SDS011;1646;52.450;13.326;2023-03-08T14:44:21;9.37;;;5.97;;
3267;SDS011;1646;52.450;13.326;2023-03-08T14:49:21;13.00;;;7.70;;
3267;SDS011;1646;52.450;13.326;2023-03-08T14:54:23;13.27;;;6.50;;
3267;SDS011;1646;52.450;13.326;2023-03-08T14:59:29;12.03;;;6.23;;
3267;SDS011;1646;52.450;13.326;2023-03-08T15:04:28;13.80;;;7.97;;
3267;SDS011;1646;52.450;13.326;2023-03-08T15:09:26;15.27;;;7.07;;
3267;SDS011;1646;52.450;13.326;2023-03-08T15:14:25;12.77;;;6.73;;
3267;SDS011;1646;52.450;13.326;2023-03-08T15:19:27;11.20;;;7.90;;
3267;SDS011;1646;52.450;13.326;2023-03-08T15:24:25;13.70;;;7.33;;
3267;SDS011;1646;52.450;13.326;2023-03-08T15:29:25;16.10;;;8.47;;
3267;SDS011;1646;52.450;13.326;2023-03-08T15:34:26;17.33;;;7.63;;
3267;SDS011;1646;52.450;13.326;2023-03-08T15:39:25;15.73;;;8.77;;
3267;SDS011;1646;52.450;13.326;2023-03-08T15:44:23;15.37;;;8.70;;
3267;SDS011;1646;52.450;13.326;2023-03-08T15:49:21;15.10;;;8.23;;
3267;SDS011;1646;52.450;13.326;2023-03-08T15:54:21;16.37;;;9.37;;
3267;SDS011;1646;52.450;13.326;2023-03-08T15:59:19;17.43;;;9.53;;
3267;SDS011;1646;52.450;13.326;2023-03-08T16:04:18;18.80;;;9.30;;
3267;SDS011;1646;52.450;13.326;2023-03-08T16:09:16;17.40;;;8.80;;
3267;SDS011;1646;52.450;13.326;2023-03-08T16:14:16;15.67;;;8.97;;
3267;SDS011;1646;52.450;13.326;2023-03-08T16:19:14;17.63;;;9.90;;
3267;SDS011;1646;52.450;13.326;2023-03-08T16:24:13;15.23;;;8.90;;
3267;SDS011;1646;52.450;13.326;2023-03-08T16:29:11;17.00;;;9.10;;
3267;SDS011;1646;52.450;13.326;2023-03-08T16:34:11;14.70;;;8.00;;
3267;SDS011;1646;52.450;13.326;2023-03-08T16:39:09;14.70;;;7.87;;
3267;SDS011;1646;52.450;13.326;2023-03-08T16:44:17;15.10;;;8.67;;
3267;SDS011;1646;52.450;13.326;2023-03-08T16:49:18;18.27;;;8.67;;
3267;SDS011;1646;52.450;13.326;2023-03-08T16:54:18;17.93;;;9.50;;
3267;SDS011;1646;52.450;13.326;2023-03-08T16:59:16;19.57;;;9.63;;
3267;SDS011;1646;52.450;13.326;2023-03-08T17:04:15;13.40;;;7.70;;
3267;SDS011;1646;52.450;13.326;2023-03-08T17:09:16;17.63;;;7.87;;
3267;SDS011;1646;52.450;13.326;2023-03-08T17:14:14;20.03;;;9.47;;
3267;SDS011;1646;52.450;13.326;2023-03-08T17:19:13;18.03;;;9.77;;
3267;SDS011;1646;52.450;13.326;2023-03-08T17:24:12;17.47;;;8.57;;
3267;SDS011;1646;52.450;13.326;2023-03-08T17:29:12;15.53;;;8.03;;
3267;SDS011;1646;52.450;13.326;2023-03-08T17:34:11;14.20;;;8.00;;
3267;SDS011;1646;52.450;13.326;2023-03-08T17:39:09;19.17;;;9.70;;
3267;SDS011;1646;52.450;13.326;2023-03-08T17:44:07;22.90;;;9.57;;
3267;SDS011;1646;52.450;13.326;2023-03-08T17:49:07;14.63;;;8.20;;
3267;SDS011;1646;52.450;13.326;2023-03-08T17:54:07;17.13;;;7.57;;
3267;SDS011;1646;52.450;13.326;2023-03-08T17:59:09;17.50;;;7.90;;
3267;SDS011;1646;52.450;13.326;2023-03-08T18:04:11;14.77;;;7.23;;
3267;SDS011;1646;52.450;13.326;2023-03-08T18:09:10;14.63;;;8.13;;
3267;SDS011;1646;52.450;13.326;2023-03-08T18:14:12;11.87;;;7.53;;
3267;SDS011;1646;52.450;13.326;2023-03-08T18:19:12;13.90;;;7.40;;
3267;SDS011;1646;52.450;13.326;2023-03-08T18:24:11;14.87;;;7.50;;
3267;SDS011;1646;52.450;13.326;2023-03-08T18:29:09;14.27;;;7.67;;
3267;SDS011;1646;52.450;13.326;2023-03-08T18:34:08;15.60;;;7.13;;
3267;SDS011;1646;52.450;13.326;2023-03-08T18:39:10;12.23;;;7.10;;
3267;SDS011;1646;52.450;13.326;2023-03-08T18:44:10;11.73;;;7.60;;
3267;SDS011;1646;52.450;13.326;2023-03-08T18:49:10;13.53;;;7.57;;
3267;SDS011;1646;52.450;13.326;2023-03-08T18:54:11;12.73;;;7.30;;
3267;SDS011;1646;52.450;13.326;2023-03-08T18:59:12;13.60;;;7.47;;
3267;SDS011;1646;52.450;13.326;2023-03-08T19:04:10;16.60;;;8.50;;
3267;SDS011;1646;52.450;13.326;2023-03-08T19:09:12;15.93;;;7.20;;
3267;SDS011;1646;52.450;13.326;2023-03-08T19:14:11;14.70;;;7.90;;
3267;SDS011;1646;52.450;13.326;2023-03-08T19:19:10;14.07;;;8.20;;
3267;SDS011;1646;52.450;13.326;2023-03-08T19:24:11;14.47;;;7.73;;
3267;SDS011;1646;52.450;13.326;2023-03-08T19:29:13;14.63;;;7.90;;
3267;SDS011;1646;52.450;13.326;2023-03-08T19:34:13;11.90;;;6.97;;
3267;SDS011;1646;52.450;13.326;2023-03-08T19:39:13;14.20;;;8.17;;
3267;SDS011;1646;52.450;13.326;2023-03-08T19:44:15;20.23;;;9.30;;
3267;SDS011;1646;52.450;13.326;2023-03-08T19:49:15;12.03;;;6.37;;
3267;SDS011;1646;52.450;13.326;2023-03-08T19:54:16;12.23;;;6.97;;
3267;SDS011;1646;52.450;13.326;2023-03-08T19:59:15;10.53;;;6.20;;
3267;SDS011;1646;52.450;13.326;2023-03-08T20:04:13;10.13;;;6.20;;
3267;SDS011;1646;52.450;13.326;2023-03-08T20:09:13;8.83;;;5.03;;
3267;SDS011;1646;52.450;13.326;2023-03-08T20:14:15;12.73;;;5.30;;
3267;SDS011;1646;52.450;13.326;2023-03-08T20:19:13;11.73;;;6.67;;
3267;SDS011;1646;52.450;13.326;2023-03-08T20:24:13;11.77;;;5.90;;
3267;SDS011;1646;52.450;13.326;2023-03-08T20:29:14;12.33;;;6.73;;
3267;SDS011;1646;52.450;13.326;2023-03-08T20:34:13;12.60;;;6.60;;
3267;SDS011;1646;52.450;13.326;2023-03-08T20:39:12;12.63;;;5.70;;
3267;SDS011;1646;52.450;13.326;2023-03-08T20:44:11;12.10;;;6.57;;
3267;SDS011;1646;52.450;13.326;2023-03-08T20:49:11;13.47;;;7.63;;
3267;SDS011;1646;52.450;13.326;2023-03-08T20:54:09;15.77;;;7.20;;
3267;SDS011;1646;52.450;13.326;2023-03-08T20:59:07;17.80;;;8.70;;
3267;SDS011;1646;52.450;13.326;2023-03-08T21:04:06;15.53;;;8.73;;
3267;SDS011;1646;52.450;13.326;2023-03-08T21:09:06;20.00;;;9.10;;
3267;SDS011;1646;52.450;13.326;2023-03-08T21:14:04;19.47;;;9.80;;
3267;SDS011;1646;52.450;13.326;2023-03-08T21:19:03;23.63;;;11.20;;
3267;SDS011;1646;52.450;13.326;2023-03-08T21:24:03;21.07;;;10.03;;
3267;SDS011;1646;52.450;13.326;2023-03-08T21:29:06;22.47;;;10.70;;
3267;SDS011;1646;52.450;13.326;2023-03-08T21:34:06;22.10;;;10.87;;
3267;SDS011;1646;52.450;13.326;2023-03-08T21:39:06;19.90;;;10.93;;
3267;SDS011;1646;52.450;13.326;2023-03-08T21:44:06;21.90;;;10.90;;
3267;SDS011;1646;52.450;13.326;2023-03-08T21:49:06;21.27;;;11.10;;
3267;SDS011;1646;52.450;13.326;2023-03-08T21:54:08;20.40;;;11.30;;
3267;SDS011;1646;52.450;13.326;2023-03-08T21:59:06;20.10;;;11.10;;
3267;SDS011;1646;52.450;13.326;2023-03-08T22:04:05;31.90;;;12.37;;
3267;SDS011;1646;52.450;13.326;2023-03-08T22:09:03;19.50;;;10.40;;
3267;SDS011;1646;52.450;13.326;2023-03-08T22:14:03;25.47;;;12.00;;
3267;SDS011;1646;52.450;13.326;2023-03-08T22:19:01;19.23;;;10.70;;
3267;SDS011;1646;52.450;13.326;2023-03-08T22:24:01;24.67;;;11.87;;
3267;SDS011;1646;52.450;13.326;2023-03-08T22:28:59;22.50;;;10.70;;
3267;SDS011;1646;52.450;13.326;2023-03-08T22:33:59;20.50;;;10.77;;
3267;SDS011;1646;52.450;13.326;2023-03-08T22:38:57;21.27;;;11.53;;
3267;SDS011;1646;52.450;13.326;2023-03-08T22:43:56;26.73;;;12.33;;
3267;SDS011;1646;52.450;13.326;2023-03-08T22:48:55;22.93;;;12.13;;
3267;SDS011;1646;52.450;13.326;2023-03-08T22:53:55;25.87;;;12.37;;
3267;SDS011;1646;52.450;13.326;2023-03-08T22:59:00;23.83;;;12.50;;
3267;SDS011;1646;52.450;13.326;2023-03-08T23:04:03;24.20;;;11.80;;
3267;SDS011;1646;52.450;13.326;2023-03-08T23:09:06;23.37;;;11.80;;
3267;SDS011;1646;52.450;13.326;2023-03-08T23:14:06;22.17;;;11.63;;
3267;SDS011;1646;52.450;13.326;2023-03-08T23:19:05;24.17;;;11.20;;
3267;SDS011;1646;52.450;13.326;2023-03-08T23:24:05;22.23;;;11.77;;
3267;SDS011;1646;52.450;13.326;2023-03-08T23:29:04;20.47;;;10.83;;
3267;SDS011;1646;52.450;13.326;2023-03-08T23:34:03;21.00;;;9.97;;
3267;SDS011;1646;52.450;13.326;2023-03-08T23:39:02;23.37;;;11.20;;
3267;SDS011;1646;52.450;13.326;2023-03-08T23:44:02;20.90;;;10.20;;
3267;SDS011;1646;52.450;13.326;2023-03-08T23:49:00;27.33;;;11.90;;
3267;SDS011;1646;52.450;13.326;2023-03-08T23:53:59;22.00;;;11.40;;
3267;SDS011;1646;52.450;13.326;2023-03-08T23:58:59;20.00;;;11.57;;
